createdAt,value
2019-06-20T00:00:37.686Z,21.17
2019-06-20T00:03:09.293Z,20.99
2019-06-20T00:05:40.950Z,20.95
2019-06-20T00:08:13.266Z,20.93
2019-06-20T00:10:44.924Z,20.90
2019-06-20T00:13:16.497Z,20.89
2019-06-20T00:15:48.064Z,20.94
2019-06-20T00:18:19.648Z,20.97
2019-06-20T00:20:51.233Z,21.04
2019-06-20T00:23:22.799Z,21.08
2019-06-20T00:25:54.373Z,21.11
2019-06-20T00:28:25.950Z,21.14
2019-06-20T00:30:57.531Z,21.12
2019-06-20T00:33:29.078Z,21.14
2019-06-20T00:36:00.717Z,21.15
2019-06-20T00:38:33.250Z,21.17
2019-06-20T00:41:04.842Z,21.20
2019-06-20T00:43:36.397Z,21.21
2019-06-20T00:46:07.979Z,21.18
2019-06-20T00:48:39.525Z,21.16
2019-06-20T00:51:11.110Z,21.13
2019-06-20T00:53:42.677Z,21.12
2019-06-20T00:56:15.337Z,21.10
2019-06-20T00:58:48.002Z,21.08
2019-06-20T01:01:19.591Z,21.07
2019-06-20T01:03:51.163Z,21.08
2019-06-20T01:06:22.764Z,21.08
2019-06-20T01:08:54.315Z,21.08
2019-06-20T01:11:25.900Z,21.08
2019-06-20T01:13:57.509Z,21.07
2019-06-20T01:16:29.078Z,21.09
2019-06-20T01:19:00.687Z,21.05
2019-06-20T01:21:32.285Z,20.97
2019-06-20T01:24:03.857Z,20.96
2019-06-20T01:26:35.436Z,20.91
2019-06-20T01:29:06.988Z,20.90
2019-06-20T01:31:38.578Z,20.79
2019-06-20T01:34:10.175Z,20.71
2019-06-20T01:36:41.738Z,20.67
2019-06-20T01:39:13.410Z,20.69
2019-06-20T01:41:44.985Z,20.70
2019-06-20T01:44:16.591Z,20.70
2019-06-20T01:46:48.149Z,20.70
2019-06-20T01:49:19.849Z,20.74
2019-06-20T01:51:51.414Z,20.74
2019-06-20T01:54:22.957Z,20.71
2019-06-20T01:56:54.562Z,20.68
2019-06-20T01:59:26.138Z,20.65
2019-06-20T02:01:57.716Z,20.62
2019-06-20T02:04:29.279Z,20.54
2019-06-20T02:07:00.907Z,20.53
2019-06-20T02:09:32.476Z,20.51
2019-06-20T02:12:04.045Z,20.50
2019-06-20T02:14:35.598Z,20.48
2019-06-20T02:17:07.263Z,20.47
2019-06-20T02:19:38.878Z,20.42
2019-06-20T02:22:10.468Z,20.35
2019-06-20T02:24:42.029Z,20.32
2019-06-20T02:27:13.589Z,20.32
2019-06-20T02:29:45.171Z,20.29
2019-06-20T02:32:16.760Z,20.27
2019-06-20T02:34:48.314Z,20.26
2019-06-20T02:37:19.916Z,20.25
2019-06-20T02:39:51.496Z,20.24
2019-06-20T02:42:23.049Z,20.24
2019-06-20T02:44:54.605Z,20.23
2019-06-20T02:47:27.257Z,20.21
2019-06-20T02:49:58.820Z,20.20
2019-06-20T02:52:30.780Z,20.12
2019-06-20T02:55:02.366Z,20.02
2019-06-20T02:57:33.920Z,20.06
2019-06-20T03:00:06.299Z,19.99
2019-06-20T03:02:38.044Z,19.87
2019-06-20T03:05:11.111Z,19.80
2019-06-20T03:07:42.680Z,19.83
2019-06-20T03:10:14.388Z,19.84
2019-06-20T03:12:45.984Z,19.85
2019-06-20T03:15:17.530Z,19.78
2019-06-20T03:17:49.087Z,19.78
2019-06-20T03:20:20.673Z,19.80
2019-06-20T03:22:52.254Z,19.79
2019-06-20T03:25:24.197Z,19.80
2019-06-20T03:27:55.768Z,19.79
2019-06-20T03:30:27.449Z,19.82
2019-06-20T03:32:59.023Z,19.83
2019-06-20T03:35:30.589Z,19.85
2019-06-20T03:38:02.129Z,19.88
2019-06-20T03:40:33.718Z,19.84
2019-06-20T03:43:05.288Z,19.83
2019-06-20T03:45:37.116Z,19.84
2019-06-20T03:48:08.678Z,19.86
2019-06-20T03:50:40.217Z,19.87
2019-06-20T03:53:11.790Z,19.85
2019-06-20T03:55:43.357Z,19.84
2019-06-20T03:58:14.939Z,19.82
2019-06-20T04:00:46.535Z,19.77
2019-06-20T04:03:18.060Z,19.75
2019-06-20T04:05:49.630Z,19.74
2019-06-20T04:08:21.168Z,19.75
2019-06-20T04:10:52.747Z,19.76
2019-06-20T04:13:24.322Z,19.74
2019-06-20T04:15:55.920Z,19.74
2019-06-20T04:18:27.721Z,19.77
2019-06-20T04:20:59.312Z,19.78
2019-06-20T04:23:30.872Z,19.80
2019-06-20T04:26:02.437Z,19.83
2019-06-20T04:28:34.005Z,19.87
2019-06-20T04:31:05.610Z,19.87
2019-06-20T04:33:37.178Z,19.89
2019-06-20T04:36:08.751Z,19.88
2019-06-20T04:38:40.314Z,19.88
2019-06-20T04:41:11.877Z,19.84
2019-06-20T04:43:43.455Z,19.82
2019-06-20T04:46:26.538Z,19.80
2019-06-20T04:48:58.114Z,19.79
2019-06-20T04:51:29.856Z,19.78
2019-06-20T04:54:01.421Z,19.78
2019-06-20T04:56:32.978Z,19.78
2019-06-20T04:59:04.561Z,19.76
2019-06-20T05:01:37.172Z,19.69
2019-06-20T05:04:08.747Z,19.60
2019-06-20T05:06:41.064Z,19.49
2019-06-20T05:09:12.640Z,19.44
2019-06-20T05:11:44.264Z,19.42
2019-06-20T05:14:15.913Z,19.42
2019-06-20T05:16:47.477Z,19.36
2019-06-20T05:19:19.093Z,19.26
2019-06-20T05:21:50.642Z,19.22
2019-06-20T05:24:25.499Z,19.17
2019-06-20T05:26:55.486Z,19.18
2019-06-20T05:29:27.076Z,19.25
2019-06-20T05:31:58.657Z,19.25
2019-06-20T05:34:30.267Z,19.23
2019-06-20T05:37:01.827Z,19.23
2019-06-20T05:39:33.420Z,19.23
2019-06-20T05:42:05.031Z,19.29
2019-06-20T05:44:36.602Z,19.34
2019-06-20T05:47:12.626Z,19.43
2019-06-20T05:49:41.480Z,19.48
2019-06-20T05:52:13.042Z,19.50
2019-06-20T05:54:44.623Z,19.52
2019-06-20T05:57:16.216Z,19.55
2019-06-20T05:59:47.770Z,19.60
2019-06-20T06:02:19.352Z,19.67
2019-06-20T06:04:50.943Z,19.73
2019-06-20T06:07:23.070Z,19.77
2019-06-20T06:09:56.003Z,19.79
2019-06-20T06:12:27.546Z,19.73
2019-06-20T06:15:00.971Z,19.69
2019-06-20T06:17:32.484Z,19.72
2019-06-20T06:20:04.377Z,19.81
2019-06-20T06:22:35.982Z,19.90
2019-06-20T06:25:08.177Z,20.03
2019-06-20T06:27:39.748Z,20.17
2019-06-20T06:30:13.395Z,20.24
2019-06-20T06:32:44.984Z,20.30
2019-06-20T06:35:18.679Z,20.45
2019-06-20T06:37:50.297Z,20.76
2019-06-20T06:40:22.309Z,21.38
2019-06-20T06:42:53.958Z,21.89
2019-06-20T06:45:25.729Z,22.42
2019-06-20T06:47:57.332Z,22.83
2019-06-20T06:50:29.444Z,22.91
2019-06-20T06:53:01.002Z,22.88
2019-06-20T06:55:32.635Z,23.00
2019-06-20T06:58:04.162Z,23.09
2019-06-20T07:00:35.760Z,23.13
2019-06-20T07:03:07.360Z,23.19
2019-06-20T07:05:38.992Z,23.16
2019-06-20T07:08:11.790Z,23.16
2019-06-20T07:10:43.416Z,23.17
2019-06-20T07:13:15.192Z,23.23
2019-06-20T07:15:47.088Z,23.44
2019-06-20T07:18:18.842Z,23.70
2019-06-20T07:20:50.418Z,24.00
2019-06-20T07:23:22.004Z,24.20
2019-06-20T07:25:53.584Z,24.57
2019-06-20T07:28:25.161Z,24.70
2019-06-20T07:30:57.750Z,24.75
2019-06-20T07:33:29.331Z,24.95
2019-06-20T07:36:00.946Z,25.40
2019-06-20T07:38:32.518Z,25.54
2019-06-20T07:41:04.125Z,25.74
2019-06-20T07:43:35.880Z,25.84
2019-06-20T07:46:07.603Z,25.96
2019-06-20T07:48:39.180Z,26.25
2019-06-20T07:51:10.809Z,26.67
2019-06-20T07:53:42.481Z,26.88
2019-06-20T07:56:14.106Z,26.65
2019-06-20T07:58:45.717Z,26.32
2019-06-20T08:01:17.313Z,26.08
2019-06-20T08:03:50.098Z,26.07
2019-06-20T08:06:21.680Z,26.36
2019-06-20T08:08:53.454Z,26.44
2019-06-20T08:11:24.986Z,26.34
2019-06-20T08:13:58.538Z,26.10
2019-06-20T08:16:31.536Z,26.16
2019-06-20T08:19:03.608Z,26.49
2019-06-20T08:21:36.886Z,26.96
2019-06-20T08:24:08.456Z,27.30
2019-06-20T08:26:40.090Z,27.66
2019-06-20T08:29:20.885Z,27.97
2019-06-20T08:31:45.018Z,27.74
2019-06-20T08:34:16.795Z,27.33
2019-06-20T08:36:49.437Z,27.31
2019-06-20T08:39:21.091Z,27.51
2019-06-20T08:41:52.670Z,27.80
2019-06-20T08:44:24.337Z,28.08
2019-06-20T08:46:58.330Z,28.09
2019-06-20T08:49:30.472Z,28.28
2019-06-20T08:52:03.415Z,28.17
2019-06-20T08:54:35.105Z,28.30
2019-06-20T08:57:06.705Z,28.10
2019-06-20T08:59:38.310Z,28.40
2019-06-20T09:02:10.592Z,28.49
2019-06-20T09:04:42.233Z,28.30
2019-06-20T09:07:13.836Z,27.72
2019-06-20T09:09:45.456Z,27.85
2019-06-20T09:12:17.102Z,28.18
2019-06-20T09:14:48.715Z,28.52
2019-06-20T09:17:20.316Z,28.89
2019-06-20T09:19:52.888Z,29.03
2019-06-20T09:22:25.003Z,28.87
2019-06-20T09:24:56.852Z,28.95
2019-06-20T09:27:28.488Z,28.95
2019-06-20T09:30:00.525Z,29.03
2019-06-20T09:32:32.238Z,28.51
2019-06-20T09:35:03.984Z,27.95
2019-06-20T09:37:35.940Z,28.25
2019-06-20T09:40:08.627Z,28.12
2019-06-20T09:42:40.331Z,28.36
2019-06-20T09:45:14.796Z,28.68
2019-06-20T09:47:47.892Z,28.69
2019-06-20T09:50:19.723Z,28.39
2019-06-20T09:52:51.592Z,28.14
2019-06-20T09:55:24.595Z,28.12
2019-06-20T09:57:56.321Z,28.09
2019-06-20T10:00:29.875Z,28.21
2019-06-20T10:03:01.509Z,28.39
2019-06-20T10:05:36.426Z,28.41
2019-06-20T10:08:08.233Z,28.39
2019-06-20T10:10:39.923Z,28.46
2019-06-20T10:13:11.536Z,28.46
2019-06-20T10:15:43.422Z,28.62
2019-06-20T10:18:15.059Z,28.78
2019-06-20T10:20:47.250Z,28.92
2019-06-20T10:23:18.911Z,28.87
2019-06-20T10:25:51.531Z,28.96
2019-06-20T10:28:23.392Z,28.86
2019-06-20T10:30:57.781Z,28.72
2019-06-20T10:33:29.513Z,28.73
2019-06-20T10:36:01.107Z,28.77
2019-06-20T10:38:32.708Z,28.97
2019-06-20T10:41:04.569Z,29.11
2019-06-20T10:43:36.409Z,29.07
2019-06-20T10:46:08.011Z,28.87
2019-06-20T10:48:39.630Z,28.69
2019-06-20T10:51:28.857Z,28.58
2019-06-20T10:54:00.484Z,28.56
2019-06-20T10:56:32.067Z,28.46
2019-06-20T10:59:03.653Z,28.25
2019-06-20T11:01:35.268Z,27.96
2019-06-20T11:04:07.355Z,27.64
2019-06-20T11:06:40.100Z,27.40
2019-06-20T11:09:13.441Z,27.20
2019-06-20T11:11:45.067Z,27.07
2019-06-20T11:14:16.777Z,26.91
2019-06-20T11:16:49.314Z,26.64
2019-06-20T11:19:20.996Z,26.51
2019-06-20T11:21:52.582Z,26.35
2019-06-20T11:24:24.369Z,26.08
2019-06-20T11:26:55.997Z,25.47
2019-06-20T11:29:28.253Z,24.92
2019-06-20T11:32:00.070Z,24.14
2019-06-20T11:34:31.662Z,23.68
2019-06-20T11:37:03.276Z,23.27
2019-06-20T11:39:36.221Z,22.81
2019-06-20T11:42:08.135Z,22.50
2019-06-20T11:44:40.872Z,22.12
2019-06-20T11:47:12.572Z,21.77
2019-06-20T11:49:44.290Z,21.47
2019-06-20T11:52:16.002Z,20.98
2019-06-20T11:54:47.648Z,20.76
2019-06-20T11:57:19.268Z,20.49
2019-06-20T11:59:50.944Z,20.25
2019-06-20T12:02:22.552Z,20.20
2019-06-20T12:04:54.167Z,20.36
2019-06-20T12:07:25.967Z,20.52
2019-06-20T12:09:57.544Z,20.60
2019-06-20T12:12:29.165Z,20.71
2019-06-20T12:15:00.738Z,20.78
2019-06-20T12:17:32.364Z,20.41
2019-06-20T12:20:04.142Z,20.23
2019-06-20T12:22:35.717Z,20.27
2019-06-20T12:25:08.346Z,20.30
2019-06-20T12:27:40.796Z,20.23
2019-06-20T12:30:13.885Z,20.32
2019-06-20T12:32:46.800Z,20.44
2019-06-20T12:35:18.952Z,20.50
2019-06-20T12:37:52.136Z,20.53
2019-06-20T12:40:24.108Z,20.57
2019-06-20T12:42:56.770Z,20.64
2019-06-20T12:45:28.507Z,20.67
2019-06-20T12:48:01.558Z,20.60
2019-06-20T12:50:33.188Z,20.80
2019-06-20T12:53:04.906Z,21.10
2019-06-20T12:55:37.260Z,21.36
2019-06-20T12:58:09.822Z,21.60
2019-06-20T13:00:42.989Z,21.85
2019-06-20T13:03:14.752Z,22.05
2019-06-20T13:05:47.136Z,22.24
2019-06-20T13:08:22.362Z,22.36
2019-06-20T13:10:55.489Z,22.49
2019-06-20T13:13:28.437Z,22.61
2019-06-20T13:16:00.400Z,22.72
2019-06-20T13:18:32.526Z,22.76
2019-06-20T13:21:05.918Z,22.80
2019-06-20T13:23:39.732Z,22.83
2019-06-20T13:26:13.431Z,22.86
2019-06-20T13:29:01.637Z,22.84
2019-06-20T13:31:20.455Z,22.80
2019-06-20T13:33:52.455Z,22.73
2019-06-20T13:36:25.806Z,22.73
2019-06-20T13:39:03.947Z,22.71
2019-06-20T13:41:40.784Z,22.68
2019-06-20T13:44:14.934Z,22.61
2019-06-20T13:46:48.990Z,22.52
2019-06-20T13:49:23.669Z,22.43
2019-06-20T13:51:55.845Z,22.38
2019-06-20T13:54:27.861Z,22.31
2019-06-20T13:56:59.770Z,22.15
2019-06-20T13:59:31.709Z,22.07
2019-06-20T14:02:06.915Z,22.03
2019-06-20T14:04:37.354Z,21.98
2019-06-20T14:07:10.067Z,21.78
2019-06-20T14:09:44.648Z,21.75
2019-06-20T14:12:18.175Z,21.76
2019-06-20T14:14:52.121Z,21.78
2019-06-20T14:17:24.272Z,21.76
2019-06-20T14:19:56.629Z,21.81
2019-06-20T14:22:28.543Z,21.82
2019-06-20T14:25:00.560Z,21.82
2019-06-20T14:27:35.028Z,21.84
2019-06-20T14:30:07.396Z,21.92
2019-06-20T14:32:39.557Z,22.07
2019-06-20T14:35:13.107Z,22.23
2019-06-20T14:37:47.305Z,22.42
2019-06-20T14:40:20.093Z,22.47
2019-06-20T14:42:54.364Z,22.58
2019-06-20T14:45:27.789Z,22.68
2019-06-20T14:47:59.401Z,22.80
2019-06-20T14:50:30.996Z,22.85
2019-06-20T14:53:02.618Z,22.91
2019-06-20T14:55:34.195Z,22.90
2019-06-20T14:58:05.854Z,22.88
2019-06-20T15:00:37.443Z,22.93
2019-06-20T15:03:09.042Z,23.00
2019-06-20T15:05:41.706Z,23.12
2019-06-20T15:08:13.298Z,23.12
2019-06-20T15:10:46.518Z,23.20
2019-06-20T15:13:18.214Z,23.31
2019-06-20T15:15:51.024Z,23.39
2019-06-20T15:18:22.810Z,23.41
2019-06-20T15:20:57.818Z,23.42
2019-06-20T15:23:27.692Z,23.42
2019-06-20T15:25:59.483Z,23.32
2019-06-20T15:28:31.074Z,23.20
2019-06-20T15:31:02.704Z,23.16
2019-06-20T15:33:34.275Z,23.09
2019-06-20T15:36:05.893Z,22.98
2019-06-20T15:38:38.575Z,22.97
2019-06-20T15:41:12.443Z,22.99
2019-06-20T15:43:43.686Z,23.07
2019-06-20T15:46:15.304Z,23.23
2019-06-20T15:48:46.948Z,23.31
2019-06-20T15:51:18.630Z,23.38
2019-06-20T15:53:51.901Z,23.43
2019-06-20T15:56:23.483Z,23.42
2019-06-20T15:58:55.366Z,23.43
2019-06-20T16:01:27.085Z,23.46
2019-06-20T16:03:58.678Z,23.46
2019-06-20T16:06:30.389Z,23.44
2019-06-20T16:09:01.971Z,23.45
2019-06-20T16:11:35.202Z,23.47
2019-06-20T16:14:07.354Z,23.40
2019-06-20T16:16:38.920Z,23.35
2019-06-20T16:19:10.511Z,23.16
2019-06-20T16:21:42.117Z,22.98
2019-06-20T16:24:13.696Z,22.89
2019-06-20T16:26:45.352Z,22.82
2019-06-20T16:29:16.931Z,22.78
2019-06-20T16:31:48.531Z,22.82
2019-06-20T16:34:20.299Z,22.88
2019-06-20T16:36:51.923Z,22.99
2019-06-20T16:39:23.665Z,23.05
2019-06-20T16:41:55.253Z,23.15
2019-06-20T16:44:26.836Z,23.27
2019-06-20T16:46:58.469Z,23.40
2019-06-20T16:49:30.104Z,23.34
2019-06-20T16:52:01.705Z,23.37
2019-06-20T16:54:33.389Z,23.51
2019-06-20T16:57:05.145Z,23.64
2019-06-20T16:59:36.842Z,23.75
2019-06-20T17:02:08.469Z,23.82
2019-06-20T17:04:40.313Z,23.82
2019-06-20T17:07:12.066Z,23.84
2019-06-20T17:09:43.677Z,23.83
2019-06-20T17:12:15.334Z,23.80
2019-06-20T17:14:46.933Z,23.75
2019-06-20T17:17:18.548Z,23.74
2019-06-20T17:19:50.145Z,23.66
2019-06-20T17:22:21.990Z,23.60
2019-06-20T17:24:53.644Z,23.50
2019-06-20T17:27:25.533Z,23.42
2019-06-20T17:29:57.281Z,23.36
2019-06-20T17:32:29.943Z,23.27
2019-06-20T17:35:01.558Z,23.20
2019-06-20T17:37:33.321Z,23.20
2019-06-20T17:40:06.308Z,23.24
2019-06-20T17:42:37.955Z,23.27
2019-06-20T17:45:11.698Z,23.24
2019-06-20T17:47:43.313Z,23.24
2019-06-20T17:50:16.107Z,23.19
2019-06-20T17:52:47.693Z,23.14
2019-06-20T17:55:20.405Z,23.08
2019-06-20T17:57:51.962Z,22.98
2019-06-20T18:00:25.868Z,22.90
2019-06-20T18:02:57.567Z,22.88
2019-06-20T18:05:39.278Z,22.86
2019-06-20T18:08:15.153Z,22.86
2019-06-20T18:10:44.377Z,22.88
2019-06-20T18:13:16.067Z,22.90
2019-06-20T18:15:47.744Z,22.90
2019-06-20T18:18:19.379Z,22.91
2019-06-20T18:20:51.116Z,22.96
2019-06-20T18:23:22.819Z,22.98
2019-06-20T18:25:54.455Z,22.98
2019-06-20T18:28:26.184Z,22.99
2019-06-20T18:30:57.807Z,22.99
2019-06-20T18:33:29.417Z,22.99
2019-06-20T18:36:01.024Z,22.94
2019-06-20T18:38:32.640Z,22.88
2019-06-20T18:41:04.246Z,22.74
2019-06-20T18:43:36.082Z,22.63
2019-06-20T18:46:07.695Z,22.49
2019-06-20T18:48:39.581Z,22.43
2019-06-20T18:51:11.166Z,22.46
2019-06-20T18:53:42.826Z,22.39
2019-06-20T18:56:14.430Z,22.38
2019-06-20T18:58:46.032Z,22.35
2019-06-20T19:01:17.609Z,22.33
2019-06-20T19:03:49.229Z,22.34
2019-06-20T19:06:35.077Z,22.34
2019-06-20T19:08:54.657Z,22.34
2019-06-20T19:11:26.345Z,22.33
2019-06-20T19:13:57.922Z,22.29
2019-06-20T19:16:29.497Z,22.25
2019-06-20T19:19:01.123Z,22.23
2019-06-20T19:21:32.709Z,22.17
2019-06-20T19:24:04.752Z,22.11
2019-06-20T19:26:37.298Z,22.07
2019-06-20T19:29:08.887Z,22.03
2019-06-20T19:31:40.546Z,21.91
2019-06-20T19:34:12.245Z,21.85
2019-06-20T19:36:43.829Z,21.79
2019-06-20T19:39:15.494Z,21.72
2019-06-20T19:41:47.128Z,21.68
2019-06-20T19:44:18.735Z,21.66
2019-06-20T19:46:50.427Z,21.60
2019-06-20T19:49:22.093Z,21.55
2019-06-20T19:51:53.688Z,21.53
2019-06-20T19:54:25.339Z,21.46
2019-06-20T19:56:57.001Z,21.33
2019-06-20T19:59:28.744Z,21.23
2019-06-20T20:02:00.469Z,21.14
2019-06-20T20:04:32.103Z,21.10
2019-06-20T20:07:03.692Z,21.01
2019-06-20T20:09:35.551Z,20.93
2019-06-20T20:12:07.166Z,20.85
2019-06-20T20:14:38.851Z,20.77
2019-06-20T20:17:10.481Z,20.71
2019-06-20T20:19:42.112Z,20.71
2019-06-20T20:22:13.926Z,20.67
2019-06-20T20:24:47.173Z,20.66
2019-06-20T20:27:18.784Z,20.64
2019-06-20T20:29:50.395Z,20.61
2019-06-20T20:32:22.038Z,20.55
2019-06-20T20:34:53.678Z,20.55
2019-06-20T20:37:25.279Z,20.50
2019-06-20T20:39:56.876Z,20.44
2019-06-20T20:42:28.465Z,20.38
2019-06-20T20:45:00.066Z,20.35
2019-06-20T20:47:31.663Z,20.33
2019-06-20T20:50:03.267Z,20.33
2019-06-20T20:52:35.972Z,20.36
2019-06-20T20:55:08.882Z,20.37
2019-06-20T20:57:40.542Z,20.33
2019-06-20T21:00:17.002Z,20.32
2019-06-20T21:02:48.629Z,20.33
2019-06-20T21:05:20.437Z,20.31
2019-06-20T21:07:52.308Z,20.24
2019-06-20T21:10:24.206Z,20.19
2019-06-20T21:12:55.917Z,20.11
2019-06-20T21:15:27.535Z,20.06
2019-06-20T21:17:59.213Z,20.05
2019-06-20T21:20:30.849Z,20.04
2019-06-20T21:23:02.491Z,20.05
2019-06-20T21:25:34.129Z,20.04
2019-06-20T21:28:05.706Z,20.05
2019-06-20T21:30:37.407Z,20.02
2019-06-20T21:33:08.971Z,20.00
2019-06-20T21:35:40.598Z,19.98
2019-06-20T21:38:12.236Z,19.97
2019-06-20T21:40:43.850Z,19.93
2019-06-20T21:43:15.452Z,19.89
2019-06-20T21:45:47.474Z,19.84
2019-06-20T21:48:19.059Z,19.79
2019-06-20T21:50:50.939Z,19.74
2019-06-20T21:53:22.531Z,19.72
2019-06-20T21:55:54.118Z,19.71
2019-06-20T21:58:25.768Z,19.68
2019-06-20T22:01:00.803Z,19.67
2019-06-20T22:03:34.176Z,19.66
2019-06-20T22:06:05.781Z,19.64
2019-06-20T22:08:37.523Z,19.63
2019-06-20T22:11:09.103Z,19.64
2019-06-20T22:13:43.127Z,19.67
2019-06-20T22:16:14.852Z,19.67
2019-06-20T22:18:46.456Z,19.64
2019-06-20T22:21:18.035Z,19.65
2019-06-20T22:23:49.626Z,19.64
2019-06-20T22:26:21.231Z,19.66
2019-06-20T22:28:52.864Z,19.69
2019-06-20T22:31:24.460Z,19.72
2019-06-20T22:33:56.121Z,19.76
2019-06-20T22:36:39.600Z,19.80
2019-06-20T22:39:01.015Z,19.84
2019-06-20T22:41:34.232Z,19.82
2019-06-20T22:44:05.790Z,19.77
2019-06-20T22:46:37.370Z,19.74
2019-06-20T22:49:08.977Z,19.70
2019-06-20T22:51:40.612Z,19.64
2019-06-20T22:54:12.224Z,19.59
2019-06-20T22:56:43.784Z,19.55
2019-06-20T22:59:15.359Z,19.54
2019-06-20T23:01:46.942Z,19.52
2019-06-20T23:04:18.518Z,19.50
2019-06-20T23:06:56.307Z,19.47
2019-06-20T23:09:24.278Z,19.44
2019-06-20T23:11:56.668Z,19.42
2019-06-20T23:14:28.258Z,19.36
2019-06-20T23:16:59.856Z,19.25
2019-06-20T23:19:31.486Z,19.20
2019-06-20T23:22:03.065Z,19.17
2019-06-20T23:24:34.623Z,19.16
2019-06-20T23:27:06.185Z,19.14
2019-06-20T23:29:37.738Z,19.12
2019-06-20T23:32:09.320Z,19.13
2019-06-20T23:34:40.952Z,19.08
2019-06-20T23:37:13.380Z,19.08
2019-06-20T23:39:45.039Z,19.05
2019-06-20T23:42:16.644Z,19.03
2019-06-20T23:44:48.340Z,19.02
2019-06-20T23:47:19.992Z,19.03
2019-06-20T23:49:51.662Z,19.01
2019-06-20T23:52:25.750Z,18.96
2019-06-20T23:54:57.410Z,18.96
2019-06-20T23:57:29.051Z,18.98
